sensor_id;sensor_type;location;lat;lon;timestamp;pressure;altitude;pressure_sealevel;temperature;humidity
59825;BME280;45703;50.898;6.054;2022-11-20T00:00:55;99835.97;;;4.11;98.91
59825;BME280;45703;50.898;6.054;2022-11-20T00:03:22;99825.41;;;4.11;98.93
59825;BME280;45703;50.898;6.054;2022-11-20T00:05:47;99820.31;;;4.10;98.90
59825;BME280;45703;50.898;6.054;2022-11-20T00:08:13;99820.69;;;4.07;98.92
59825;BME280;45703;50.898;6.054;2022-11-20T00:10:39;99829.03;;;4.10;99.26
59825;BME280;45703;50.898;6.054;2022-11-20T00:13:06;99828.88;;;4.12;98.94
59825;BME280;45703;50.898;6.054;2022-11-20T00:15:31;99824.38;;;4.12;98.79
59825;BME280;45703;50.898;6.054;2022-11-20T00:17:56;99823.13;;;4.08;98.89
59825;BME280;45703;50.898;6.054;2022-11-20T00:20:22;99824.38;;;4.12;98.76
59825;BME280;45703;50.898;6.054;2022-11-20T00:22:47;99830.50;;;4.13;98.88
59825;BME280;45703;50.898;6.054;2022-11-20T00:25:13;99828.03;;;4.11;98.79
59825;BME280;45703;50.898;6.054;2022-11-20T00:27:38;99817.84;;;4.08;98.78
59825;BME280;45703;50.898;6.054;2022-11-20T00:30:05;99822.38;;;4.14;98.70
59825;BME280;45703;50.898;6.054;2022-11-20T00:32:30;99815.47;;;4.13;98.36
59825;BME280;45703;50.898;6.054;2022-11-20T00:34:55;99819.94;;;4.13;98.42
59825;BME280;45703;50.898;6.054;2022-11-20T00:37:21;99828.66;;;4.13;98.52
59825;BME280;45703;50.898;6.054;2022-11-20T00:39:46;99825.00;;;4.14;98.44
59825;BME280;45703;50.898;6.054;2022-11-20T00:42:12;99824.38;;;4.12;98.14
59825;BME280;45703;50.898;6.054;2022-11-20T00:44:37;99824.00;;;4.15;98.23
59825;BME280;45703;50.898;6.054;2022-11-20T00:47:02;99820.75;;;4.13;98.31
59825;BME280;45703;50.898;6.054;2022-11-20T00:49:28;99828.03;;;4.11;98.51
59825;BME280;45703;50.898;6.054;2022-11-20T00:51:53;99826.03;;;4.13;98.42
59825;BME280;45703;50.898;6.054;2022-11-20T00:54:18;99819.09;;;4.12;98.54
59825;BME280;45703;50.898;6.054;2022-11-20T00:56:44;99817.31;;;4.13;98.68
59825;BME280;45703;50.898;6.054;2022-11-20T00:59:09;99811.00;;;4.14;98.70
59825;BME280;45703;50.898;6.054;2022-11-20T01:01:36;99813.81;;;4.12;98.92
59825;BME280;45703;50.898;6.054;2022-11-20T01:04:02;99812.19;;;4.11;98.73
59825;BME280;45703;50.898;6.054;2022-11-20T01:06:36;99824.00;;;4.15;98.77
59825;BME280;45703;50.898;6.054;2022-11-20T01:09:05;99815.06;;;4.16;98.75
59825;BME280;45703;50.898;6.054;2022-11-20T01:11:33;99809.78;;;4.16;98.77
59825;BME280;45703;50.898;6.054;2022-11-20T01:14:01;99814.06;;;4.17;98.84
59825;BME280;45703;50.898;6.054;2022-11-20T01:16:30;99809.78;;;4.16;98.84
59825;BME280;45703;50.898;6.054;2022-11-20T01:18:57;99801.25;;;4.14;98.90
59825;BME280;45703;50.898;6.054;2022-11-20T01:21:26;99804.97;;;4.20;98.96
59825;BME280;45703;50.898;6.054;2022-11-20T01:23:52;99798.03;;;4.19;99.08
59825;BME280;45703;50.898;6.054;2022-11-20T01:26:23;99795.19;;;4.20;98.92
59825;BME280;45703;50.898;6.054;2022-11-20T01:28:49;99798.91;;;4.25;98.99
59825;BME280;45703;50.898;6.054;2022-11-20T01:31:18;99798.06;;;4.25;99.01
59825;BME280;45703;50.898;6.054;2022-11-20T01:33:45;99795.66;;;4.23;98.94
59825;BME280;45703;50.898;6.054;2022-11-20T01:36:11;99796.50;;;4.30;98.62
59825;BME280;45703;50.898;6.054;2022-11-20T01:38:37;99787.34;;;4.26;98.38
59825;BME280;45703;50.898;6.054;2022-11-20T01:41:03;99790.38;;;4.30;98.21
59825;BME280;45703;50.898;6.054;2022-11-20T01:43:28;99794.44;;;4.26;98.16
59825;BME280;45703;50.898;6.054;2022-11-20T01:48:23;99780.97;;;4.21;98.29
59825;BME280;45703;50.898;6.054;2022-11-20T01:50:52;99791.53;;;4.21;98.46
59825;BME280;45703;50.898;6.054;2022-11-20T01:53:21;99781.75;;;4.15;98.38
59825;BME280;45703;50.898;6.054;2022-11-20T01:55:51;99799.06;;;4.18;98.29
59825;BME280;45703;50.898;6.054;2022-11-20T01:58:27;99803.09;;;4.14;98.42
59825;BME280;45703;50.898;6.054;2022-11-20T02:00:53;99788.81;;;4.08;98.32
59825;BME280;45703;50.898;6.054;2022-11-20T02:03:20;99793.06;;;4.09;98.57
59825;BME280;45703;50.898;6.054;2022-11-20T02:06:00;99775.97;;;4.05;98.77
59825;BME280;45703;50.898;6.054;2022-11-20T02:08:27;99782.28;;;4.04;98.84
59825;BME280;45703;50.898;6.054;2022-11-20T02:10:53;99773.53;;;4.04;99.05
59825;BME280;45703;50.898;6.054;2022-11-20T02:13:18;99772.78;;;4.10;99.16
59825;BME280;45703;50.898;6.054;2022-11-20T02:16:03;99771.94;;;4.09;99.22
59825;BME280;45703;50.898;6.054;2022-11-20T02:18:28;99770.13;;;4.10;99.22
59825;BME280;45703;50.898;6.054;2022-11-20T02:20:59;99771.56;;;4.12;99.43
59825;BME280;45703;50.898;6.054;2022-11-20T02:23:39;99780.94;;;4.15;99.35
59825;BME280;45703;50.898;6.054;2022-11-20T02:26:08;99767.53;;;4.16;99.64
59825;BME280;45703;50.898;6.054;2022-11-20T02:28:36;99771.19;;;4.15;99.42
59825;BME280;45703;50.898;6.054;2022-11-20T02:31:01;99769.16;;;4.17;99.66
59825;BME280;45703;50.898;6.054;2022-11-20T02:33:26;99762.63;;;4.13;99.56
59825;BME280;45703;50.898;6.054;2022-11-20T02:35:52;99767.34;;;4.18;99.62
59825;BME280;45703;50.898;6.054;2022-11-20T02:38:17;99769.63;;;4.21;99.54
59825;BME280;45703;50.898;6.054;2022-11-20T02:40:43;99758.59;;;4.17;99.59
59825;BME280;45703;50.898;6.054;2022-11-20T02:43:09;99755.56;;;4.20;99.70
59825;BME280;45703;50.898;6.054;2022-11-20T02:45:34;99764.75;;;4.24;99.75
59825;BME280;45703;50.898;6.054;2022-11-20T02:48:00;99767.59;;;4.22;99.65
59825;BME280;45703;50.898;6.054;2022-11-20T02:50:25;99761.72;;;4.27;99.54
59825;BME280;45703;50.898;6.054;2022-11-20T02:52:51;99778.19;;;4.29;99.49
59825;BME280;45703;50.898;6.054;2022-11-20T02:55:16;99778.56;;;4.26;99.94
59825;BME280;45703;50.898;6.054;2022-11-20T02:57:42;99767.78;;;4.21;99.54
59825;BME280;45703;50.898;6.054;2022-11-20T03:00:07;99773.69;;;4.23;99.54
59825;BME280;45703;50.898;6.054;2022-11-20T03:02:33;99767.78;;;4.21;99.69
59825;BME280;45703;50.898;6.054;2022-11-20T03:04:58;99775.94;;;4.26;99.64
59825;BME280;45703;50.898;6.054;2022-11-20T03:07:24;99773.69;;;4.23;99.73
59825;BME280;45703;50.898;6.054;2022-11-20T03:09:49;99770.63;;;4.20;99.68
59825;BME280;45703;50.898;6.054;2022-11-20T03:12:15;99774.50;;;4.23;99.79
59825;BME280;45703;50.898;6.054;2022-11-20T03:14:40;99773.44;;;4.18;100.00
59825;BME280;45703;50.898;6.054;2022-11-20T03:17:05;99770.00;;;4.18;99.81
59825;BME280;45703;50.898;6.054;2022-11-20T03:19:31;99774.50;;;4.23;99.68
59825;BME280;45703;50.898;6.054;2022-11-20T03:21:56;99782.47;;;4.30;99.82
59825;BME280;45703;50.898;6.054;2022-11-20T03:24:22;99774.97;;;4.33;98.79
59825;BME280;45703;50.898;6.054;2022-11-20T03:26:47;99788.13;;;4.27;98.66
59825;BME280;45703;50.898;6.054;2022-11-20T03:29:12;99772.44;;;4.19;98.10
59825;BME280;45703;50.898;6.054;2022-11-20T03:31:39;99776.06;;;4.18;98.26
59825;BME280;45703;50.898;6.054;2022-11-20T03:34:06;99772.34;;;4.06;98.39
59825;BME280;45703;50.898;6.054;2022-11-20T03:36:31;99766.03;;;4.07;97.74
59825;BME280;45703;50.898;6.054;2022-11-20T03:38:57;99764.16;;;4.01;98.04
59825;BME280;45703;50.898;6.054;2022-11-20T03:41:29;99773.88;;;3.94;97.99
59825;BME280;45703;50.898;6.054;2022-11-20T03:44:00;99769.72;;;3.85;98.50
59825;BME280;45703;50.898;6.054;2022-11-20T03:46:26;99758.25;;;3.78;98.14
59825;BME280;45703;50.898;6.054;2022-11-20T03:48:52;99762.28;;;3.74;98.59
59825;BME280;45703;50.898;6.054;2022-11-20T03:51:19;99756.38;;;3.72;98.66
59825;BME280;45703;50.898;6.054;2022-11-20T03:53:46;99756.38;;;3.72;98.58
59825;BME280;45703;50.898;6.054;2022-11-20T03:56:14;99755.38;;;3.73;98.63
59825;BME280;45703;50.898;6.054;2022-11-20T03:58:40;99751.06;;;3.66;99.37
59825;BME280;45703;50.898;6.054;2022-11-20T04:01:07;99755.75;;;3.70;99.07
59825;BME280;45703;50.898;6.054;2022-11-20T04:03:33;99759.84;;;3.73;98.70
59825;BME280;45703;50.898;6.054;2022-11-20T04:06:10;99753.75;;;3.72;98.32
59825;BME280;45703;50.898;6.054;2022-11-20T04:08:36;99763.13;;;3.75;98.65
59825;BME280;45703;50.898;6.054;2022-11-20T04:11:18;99734.53;;;3.57;98.44
59825;BME280;45703;50.898;6.054;2022-11-20T04:13:49;99757.97;;;3.67;98.65
59825;BME280;45703;50.898;6.054;2022-11-20T04:16:16;99754.50;;;3.66;98.79
59825;BME280;45703;50.898;6.054;2022-11-20T04:18:41;99758.78;;;3.67;98.49
59825;BME280;45703;50.898;6.054;2022-11-20T04:21:07;99757.53;;;3.63;98.69
59825;BME280;45703;50.898;6.054;2022-11-20T04:23:33;99759.34;;;3.63;98.49
59825;BME280;45703;50.898;6.054;2022-11-20T04:26:06;99751.25;;;3.64;98.58
59825;BME280;45703;50.898;6.054;2022-11-20T04:28:32;99759.41;;;3.69;98.46
59825;BME280;45703;50.898;6.054;2022-11-20T04:31:12;99748.41;;;3.66;98.46
59825;BME280;45703;50.898;6.054;2022-11-20T04:33:38;99754.50;;;3.66;98.45
59825;BME280;45703;50.898;6.054;2022-11-20T04:36:12;99750.44;;;3.64;98.65
59825;BME280;45703;50.898;6.054;2022-11-20T04:38:38;99742.81;;;3.54;98.54
59825;BME280;45703;50.898;6.054;2022-11-20T04:41:06;99753.56;;;3.53;98.62
59825;BME280;45703;50.898;6.054;2022-11-20T04:43:32;99752.28;;;3.49;99.13
59825;BME280;45703;50.898;6.054;2022-11-20T04:45:58;99749.41;;;3.44;99.01
59825;BME280;45703;50.898;6.054;2022-11-20T04:48:28;99750.00;;;3.39;98.92
59825;BME280;45703;50.898;6.054;2022-11-20T04:50:54;99760.34;;;3.41;99.03
59825;BME280;45703;50.898;6.054;2022-11-20T04:53:20;99761.16;;;3.41;99.25
59825;BME280;45703;50.898;6.054;2022-11-20T04:55:46;99759.16;;;3.43;99.06
59825;BME280;45703;50.898;6.054;2022-11-20T04:58:12;99759.53;;;3.40;99.34
59825;BME280;45703;50.898;6.054;2022-11-20T05:00:38;99759.91;;;3.37;99.40
59825;BME280;45703;50.898;6.054;2022-11-20T05:03:03;99751.41;;;3.42;99.29
59825;BME280;45703;50.898;6.054;2022-11-20T05:05:29;99759.22;;;3.50;98.68
59825;BME280;45703;50.898;6.054;2022-11-20T05:07:58;99760.66;;;3.52;98.59
59825;BME280;45703;50.898;6.054;2022-11-20T05:10:25;99757.16;;;3.45;98.41
59825;BME280;45703;50.898;6.054;2022-11-20T05:12:51;99755.91;;;3.41;98.75
59825;BME280;45703;50.898;6.054;2022-11-20T05:15:16;99765.88;;;3.46;98.97
59825;BME280;45703;50.898;6.054;2022-11-20T05:17:47;99767.84;;;3.58;98.52
59825;BME280;45703;50.898;6.054;2022-11-20T05:20:12;99768.59;;;3.52;98.70
59825;BME280;45703;50.898;6.054;2022-11-20T05:22:38;99759.53;;;3.61;98.45
59825;BME280;45703;50.898;6.054;2022-11-20T05:25:03;99749.09;;;3.53;98.35
59825;BME280;45703;50.898;6.054;2022-11-20T05:27:29;99748.72;;;3.56;98.31
59825;BME280;45703;50.898;6.054;2022-11-20T05:29:54;99746.88;;;3.57;98.46
59825;BME280;45703;50.898;6.054;2022-11-20T05:32:19;99749.09;;;3.53;98.57
59825;BME280;45703;50.898;6.054;2022-11-20T05:34:44;99742.00;;;3.54;98.96
59825;BME280;45703;50.898;6.054;2022-11-20T05:37:10;99743.44;;;3.56;98.75
59825;BME280;45703;50.898;6.054;2022-11-20T05:39:35;99731.63;;;3.52;98.99
59825;BME280;45703;50.898;6.054;2022-11-20T05:42:00;99728.41;;;3.57;98.88
59825;BME280;45703;50.898;6.054;2022-11-20T05:44:44;99726.22;;;3.60;98.96
59825;BME280;45703;50.898;6.054;2022-11-20T05:47:10;99737.00;;;3.59;98.88
59825;BME280;45703;50.898;6.054;2022-11-20T05:49:35;99737.53;;;3.75;98.42
59825;BME280;45703;50.898;6.054;2022-11-20T05:52:00;99744.06;;;3.79;98.06
59825;BME280;45703;50.898;6.054;2022-11-20T05:54:26;99748.53;;;3.79;97.64
59825;BME280;45703;50.898;6.054;2022-11-20T05:56:51;99747.47;;;3.73;97.64
59825;BME280;45703;50.898;6.054;2022-11-20T05:59:16;99737.78;;;3.59;97.84
59825;BME280;45703;50.898;6.054;2022-11-20T06:01:42;99744.25;;;3.57;98.33
59825;BME280;45703;50.898;6.054;2022-11-20T06:04:07;99747.72;;;3.57;98.57
59825;BME280;45703;50.898;6.054;2022-11-20T06:06:32;99744.72;;;3.60;98.70
59825;BME280;45703;50.898;6.054;2022-11-20T06:08:58;99745.16;;;3.64;98.61
59825;BME280;45703;50.898;6.054;2022-11-20T06:11:24;99742.44;;;3.57;99.03
59825;BME280;45703;50.898;6.054;2022-11-20T06:13:50;99760.16;;;3.63;98.62
59825;BME280;45703;50.898;6.054;2022-11-20T06:16:19;99756.09;;;3.61;98.84
59825;BME280;45703;50.898;6.054;2022-11-20T06:18:45;99748.56;;;3.58;98.98
59825;BME280;45703;50.898;6.054;2022-11-20T06:21:16;99754.81;;;3.57;99.21
59825;BME280;45703;50.898;6.054;2022-11-20T06:23:42;99755.63;;;3.57;99.41
59825;BME280;45703;50.898;6.054;2022-11-20T06:26:12;99753.25;;;3.62;99.24
59825;BME280;45703;50.898;6.054;2022-11-20T06:28:38;99761.78;;;3.64;99.14
59825;BME280;45703;50.898;6.054;2022-11-20T06:31:05;99756.50;;;3.64;99.32
59825;BME280;45703;50.898;6.054;2022-11-20T06:33:31;99759.28;;;3.56;99.24
59825;BME280;45703;50.898;6.054;2022-11-20T06:35:58;99770.34;;;3.66;99.39
59825;BME280;45703;50.898;6.054;2022-11-20T06:38:27;99771.34;;;3.65;99.26
59825;BME280;45703;50.898;6.054;2022-11-20T06:40:53;99771.16;;;3.67;99.34
59825;BME280;45703;50.898;6.054;2022-11-20T06:43:19;99773.97;;;3.65;99.57
59825;BME280;45703;50.898;6.054;2022-11-20T06:45:44;99780.84;;;3.60;99.95
59825;BME280;45703;50.898;6.054;2022-11-20T06:48:10;99778.00;;;3.61;99.72
59825;BME280;45703;50.898;6.054;2022-11-20T06:50:38;99777.25;;;3.67;99.50
59825;BME280;45703;50.898;6.054;2022-11-20T06:53:04;99767.69;;;3.66;99.12
59825;BME280;45703;50.898;6.054;2022-11-20T06:55:30;99768.16;;;3.70;99.09
59825;BME280;45703;50.898;6.054;2022-11-20T06:57:56;99772.81;;;3.68;99.17
59825;BME280;45703;50.898;6.054;2022-11-20T07:00:21;99771.34;;;3.65;99.68
59825;BME280;45703;50.898;6.054;2022-11-20T07:02:47;99777.25;;;3.67;100.00
59825;BME280;45703;50.898;6.054;2022-11-20T07:05:12;99774.84;;;3.72;99.67
59825;BME280;45703;50.898;6.054;2022-11-20T07:07:37;99773.59;;;3.68;99.58
59825;BME280;45703;50.898;6.054;2022-11-20T07:10:03;99774.19;;;3.64;100.00
59825;BME280;45703;50.898;6.054;2022-11-20T07:12:29;99774.44;;;3.69;100.00
59825;BME280;45703;50.898;6.054;2022-11-20T07:14:54;99754.88;;;3.63;100.00
59825;BME280;45703;50.898;6.054;2022-11-20T07:17:20;99770.78;;;3.70;100.00
59825;BME280;45703;50.898;6.054;2022-11-20T07:19:45;99764.88;;;3.68;100.00
59825;BME280;45703;50.898;6.054;2022-11-20T07:22:10;99767.19;;;3.77;100.00
59825;BME280;45703;50.898;6.054;2022-11-20T07:24:36;99762.16;;;3.82;100.00
59825;BME280;45703;50.898;6.054;2022-11-20T07:27:01;99761.09;;;3.77;100.00
59825;BME280;45703;50.898;6.054;2022-11-20T07:29:26;99769.91;;;3.84;100.00
59825;BME280;45703;50.898;6.054;2022-11-20T07:31:52;99770.22;;;3.74;100.00
59825;BME280;45703;50.898;6.054;2022-11-20T07:34:17;99758.78;;;3.67;100.00
59825;BME280;45703;50.898;6.054;2022-11-20T07:36:42;99759.28;;;3.77;100.00
59825;BME280;45703;50.898;6.054;2022-11-20T07:39:08;99751.72;;;3.74;100.00
59825;BME280;45703;50.898;6.054;2022-11-20T07:41:33;99740.94;;;3.69;100.00
59825;BME280;45703;50.898;6.054;2022-11-20T07:43:58;99748.47;;;3.72;100.00
59825;BME280;45703;50.898;6.054;2022-11-20T07:46:24;99752.94;;;3.72;100.00
59825;BME280;45703;50.898;6.054;2022-11-20T07:48:49;99762.66;;;3.71;100.00
59825;BME280;45703;50.898;6.054;2022-11-20T07:51:14;99748.09;;;3.75;100.00
59825;BME280;45703;50.898;6.054;2022-11-20T07:53:40;99749.34;;;3.79;100.00
59825;BME280;45703;50.898;6.054;2022-11-20T07:56:05;99744.44;;;3.76;100.00
59825;BME280;45703;50.898;6.054;2022-11-20T07:58:31;99756.25;;;3.80;100.00
59825;BME280;45703;50.898;6.054;2022-11-20T08:01:06;99759.16;;;3.85;100.00
59825;BME280;45703;50.898;6.054;2022-11-20T08:03:32;99765.44;;;3.84;100.00
59825;BME280;45703;50.898;6.054;2022-11-20T08:06:01;99756.88;;;3.82;100.00
59825;BME280;45703;50.898;6.054;2022-11-20T08:08:27;99761.28;;;3.96;100.00
59825;BME280;45703;50.898;6.054;2022-11-20T08:10:52;99764.47;;;3.92;100.00
59825;BME280;45703;50.898;6.054;2022-11-20T08:13:38;99757.63;;;3.97;100.00
59825;BME280;45703;50.898;6.054;2022-11-20T08:16:22;99757.19;;;3.94;100.00
59825;BME280;45703;50.898;6.054;2022-11-20T08:18:47;99755.00;;;3.97;100.00
59825;BME280;45703;50.898;6.054;2022-11-20T08:21:12;99758.44;;;3.98;100.00
59825;BME280;45703;50.898;6.054;2022-11-20T08:23:37;99758.44;;;3.98;100.00
59825;BME280;45703;50.898;6.054;2022-11-20T08:26:03;99754.00;;;3.98;100.00
59825;BME280;45703;50.898;6.054;2022-11-20T08:28:28;99754.84;;;4.05;100.00
59825;BME280;45703;50.898;6.054;2022-11-20T08:30:59;99749.97;;;4.02;100.00
59825;BME280;45703;50.898;6.054;2022-11-20T08:33:24;99746.72;;;4.07;100.00
59825;BME280;45703;50.898;6.054;2022-11-20T08:35:50;99747.00;;;4.12;100.00
59825;BME280;45703;50.898;6.054;2022-11-20T08:38:15;99733.78;;;4.12;100.00
59825;BME280;45703;50.898;6.054;2022-11-20T08:40:40;99748.88;;;4.18;100.00
59825;BME280;45703;50.898;6.054;2022-11-20T08:43:06;99752.53;;;4.23;100.00
59825;BME280;45703;50.898;6.054;2022-11-20T08:45:31;99745.25;;;4.25;100.00
59825;BME280;45703;50.898;6.054;2022-11-20T08:48:00;99742.22;;;4.28;100.00
59825;BME280;45703;50.898;6.054;2022-11-20T08:50:26;99741.47;;;4.34;100.00
59825;BME280;45703;50.898;6.054;2022-11-20T08:52:51;99738.44;;;4.37;100.00
59825;BME280;45703;50.898;6.054;2022-11-20T08:55:16;99746.22;;;4.45;100.00
59825;BME280;45703;50.898;6.054;2022-11-20T08:57:42;99737.28;;;4.46;100.00
59825;BME280;45703;50.898;6.054;2022-11-20T09:00:07;99750.13;;;4.55;100.00
59825;BME280;45703;50.898;6.054;2022-11-20T09:02:33;99742.22;;;4.62;100.00
59825;BME280;45703;50.898;6.054;2022-11-20T09:04:59;99735.97;;;4.69;100.00
59825;BME280;45703;50.898;6.054;2022-11-20T09:07:24;99743.31;;;4.74;100.00
59825;BME280;45703;50.898;6.054;2022-11-20T09:09:50;99741.38;;;4.89;100.00
59825;BME280;45703;50.898;6.054;2022-11-20T09:12:15;99731.81;;;4.88;100.00
59825;BME280;45703;50.898;6.054;2022-11-20T09:14:41;99736.91;;;4.96;100.00
59825;BME280;45703;50.898;6.054;2022-11-20T09:17:06;99740.78;;;5.00;99.76
59825;BME280;45703;50.898;6.054;2022-11-20T09:19:33;99730.84;;;5.02;99.78
59825;BME280;45703;50.898;6.054;2022-11-20T09:21:58;99731.22;;;5.05;99.87
59825;BME280;45703;50.898;6.054;2022-11-20T09:24:25;99728.00;;;5.10;99.82
59825;BME280;45703;50.898;6.054;2022-11-20T09:26:51;99719.66;;;5.13;99.68
59825;BME280;45703;50.898;6.054;2022-11-20T09:29:16;99719.28;;;5.16;99.74
59825;BME280;45703;50.898;6.054;2022-11-20T09:31:41;99713.56;;;5.19;99.46
59825;BME280;45703;50.898;6.054;2022-11-20T09:34:06;99706.66;;;5.18;99.53
59825;BME280;45703;50.898;6.054;2022-11-20T09:36:32;99713.19;;;5.22;99.64
59825;BME280;45703;50.898;6.054;2022-11-20T09:38:57;99703.84;;;5.32;99.14
59825;BME280;45703;50.898;6.054;2022-11-20T09:41:55;99708.31;;;5.32;98.79
59825;BME280;45703;50.898;6.054;2022-11-20T09:47:19;99702.63;;;5.35;98.53
59825;BME280;45703;50.898;6.054;2022-11-20T09:53:12;99683.06;;;5.36;98.30
59825;BME280;45703;50.898;6.054;2022-11-20T09:55:38;99690.44;;;5.40;98.55
59825;BME280;45703;50.898;6.054;2022-11-20T09:58:15;99691.25;;;5.47;98.69
59825;BME280;45703;50.898;6.054;2022-11-20T10:00:41;99696.56;;;5.54;98.99
59825;BME280;45703;50.898;6.054;2022-11-20T10:03:50;99697.78;;;5.58;98.67
59825;BME280;45703;50.898;6.054;2022-11-20T10:06:21;99685.16;;;5.60;98.71
59825;BME280;45703;50.898;6.054;2022-11-20T10:08:55;99695.34;;;5.63;98.80
59825;BME280;45703;50.898;6.054;2022-11-20T10:16:44;99680.28;;;5.76;98.51
59825;BME280;45703;50.898;6.054;2022-11-20T10:19:32;99687.84;;;5.79;98.38
59825;BME280;45703;50.898;6.054;2022-11-20T10:25:00;99666.25;;;5.88;98.38
59825;BME280;45703;50.898;6.054;2022-11-20T10:30:15;99660.13;;;5.94;98.15
59825;BME280;45703;50.898;6.054;2022-11-20T10:33:04;99657.06;;;5.97;97.90
59825;BME280;45703;50.898;6.054;2022-11-20T10:38:02;99642.16;;;6.03;98.17
59825;BME280;45703;50.898;6.054;2022-11-20T10:40:41;99639.34;;;6.04;98.38
59825;BME280;45703;50.898;6.054;2022-11-20T10:45:49;99625.25;;;6.10;98.63
59825;BME280;45703;50.898;6.054;2022-11-20T10:48:24;99625.03;;;6.18;98.39
59825;BME280;45703;50.898;6.054;2022-11-20T10:56:22;99622.94;;;6.33;98.58
59825;BME280;45703;50.898;6.054;2022-11-20T10:59:03;99616.19;;;6.37;98.54
59825;BME280;45703;50.898;6.054;2022-11-20T11:01:29;99614.78;;;6.41;98.48
59825;BME280;45703;50.898;6.054;2022-11-20T11:03:55;99604.56;;;6.45;98.36
59825;BME280;45703;50.898;6.054;2022-11-20T11:06:31;99597.44;;;6.45;98.27
59825;BME280;45703;50.898;6.054;2022-11-20T11:09:02;99595.13;;;6.55;98.36
59825;BME280;45703;50.898;6.054;2022-11-20T11:11:31;99583.50;;;6.56;98.48
59825;BME280;45703;50.898;6.054;2022-11-20T11:14:15;99577.78;;;6.59;98.50
59825;BME280;45703;50.898;6.054;2022-11-20T11:16:57;99583.84;;;6.66;98.43
59825;BME280;45703;50.898;6.054;2022-11-20T11:19:23;99576.06;;;6.71;98.33
59825;BME280;45703;50.898;6.054;2022-11-20T11:21:51;99562.81;;;6.71;98.41
59825;BME280;45703;50.898;6.054;2022-11-20T11:24:22;99561.75;;;6.79;98.23
59825;BME280;45703;50.898;6.054;2022-11-20T11:26:54;99554.59;;;6.79;98.14
59825;BME280;45703;50.898;6.054;2022-11-20T11:29:20;99557.63;;;6.89;98.53
59825;BME280;45703;50.898;6.054;2022-11-20T11:31:45;99555.13;;;6.94;98.34
59825;BME280;45703;50.898;6.054;2022-11-20T11:34:29;99548.97;;;7.00;98.53
59825;BME280;45703;50.898;6.054;2022-11-20T11:37:17;99539.31;;;7.06;98.46
59825;BME280;45703;50.898;6.054;2022-11-20T11:39:43;99535.00;;;7.11;98.55
59825;BME280;45703;50.898;6.054;2022-11-20T11:42:13;99543.94;;;7.16;98.40
59825;BME280;45703;50.898;6.054;2022-11-20T11:44:45;99531.63;;;7.22;98.46
59825;BME280;45703;50.898;6.054;2022-11-20T11:47:32;99525.47;;;7.28;98.60
59825;BME280;45703;50.898;6.054;2022-11-20T11:50:22;99526.22;;;7.35;98.58
59825;BME280;45703;50.898;6.054;2022-11-20T11:52:55;99515.16;;;7.38;98.39
59825;BME280;45703;50.898;6.054;2022-11-20T11:55:39;99519.63;;;7.44;98.42
59825;BME280;45703;50.898;6.054;2022-11-20T12:01:11;99516.69;;;7.52;98.13
59825;BME280;45703;50.898;6.054;2022-11-20T12:03:40;99498.69;;;7.54;98.16
59825;BME280;45703;50.898;6.054;2022-11-20T12:06:14;99499.88;;;7.58;98.13
59825;BME280;45703;50.898;6.054;2022-11-20T12:08:49;99493.28;;;7.60;98.13
59825;BME280;45703;50.898;6.054;2022-11-20T12:11:24;99487.75;;;7.62;97.89
59825;BME280;45703;50.898;6.054;2022-11-20T12:16:26;99470.78;;;7.63;97.91
59825;BME280;45703;50.898;6.054;2022-11-20T12:18:52;99477.09;;;7.68;98.06
59825;BME280;45703;50.898;6.054;2022-11-20T12:21:31;99473.16;;;7.71;97.86
59825;BME280;45703;50.898;6.054;2022-11-20T12:29:15;99459.94;;;7.82;97.77
59825;BME280;45703;50.898;6.054;2022-11-20T12:32:00;99464.00;;;7.85;97.98
59825;BME280;45703;50.898;6.054;2022-11-20T12:40:00;99449.97;;;7.96;97.94
59825;BME280;45703;50.898;6.054;2022-11-20T12:48:41;99443.31;;;8.05;98.02
59825;BME280;45703;50.898;6.054;2022-11-20T13:07:44;99404.41;;;8.40;97.36
59825;BME280;45703;50.898;6.054;2022-11-20T13:10:20;99393.34;;;8.43;97.16
59825;BME280;45703;50.898;6.054;2022-11-20T13:12:53;99376.91;;;8.46;96.75
59825;BME280;45703;50.898;6.054;2022-11-20T13:15:42;99376.47;;;8.49;96.72
59825;BME280;45703;50.898;6.054;2022-11-20T13:18:12;99380.88;;;8.55;96.74
59825;BME280;45703;50.898;6.054;2022-11-20T13:20:44;99376.91;;;8.57;96.78
59825;BME280;45703;50.898;6.054;2022-11-20T13:23:09;99363.41;;;8.58;96.82
59825;BME280;45703;50.898;6.054;2022-11-20T13:25:37;99353.91;;;8.62;96.40
59825;BME280;45703;50.898;6.054;2022-11-20T13:30:35;99354.72;;;8.63;96.24
59825;BME280;45703;50.898;6.054;2022-11-20T13:33:23;99362.22;;;8.66;95.26
59825;BME280;45703;50.898;6.054;2022-11-20T13:36:00;99350.34;;;8.68;95.91
59825;BME280;45703;50.898;6.054;2022-11-20T13:38:27;99351.38;;;8.67;95.06
59825;BME280;45703;50.898;6.054;2022-11-20T13:40:56;99344.66;;;8.65;95.27
59825;BME280;45703;50.898;6.054;2022-11-20T13:43:34;99343.84;;;8.64;95.21
59825;BME280;45703;50.898;6.054;2022-11-20T13:46:09;99335.28;;;8.62;95.30
59825;BME280;45703;50.898;6.054;2022-11-20T13:48:40;99318.75;;;8.60;94.69
59825;BME280;45703;50.898;6.054;2022-11-20T13:51:33;99312.84;;;8.58;95.09
59825;BME280;45703;50.898;6.054;2022-11-20T13:56:54;99313.91;;;8.57;95.56
59825;BME280;45703;50.898;6.054;2022-11-20T13:59:49;99303.16;;;8.53;95.31
59825;BME280;45703;50.898;6.054;2022-11-20T14:02:19;99304.75;;;8.54;95.45
59825;BME280;45703;50.898;6.054;2022-11-20T14:04:48;99304.19;;;8.52;95.11
59825;BME280;45703;50.898;6.054;2022-11-20T14:07:15;99297.25;;;8.51;95.22
59825;BME280;45703;50.898;6.054;2022-11-20T14:09:51;99299.09;;;8.50;94.97
59825;BME280;45703;50.898;6.054;2022-11-20T14:12:20;99295.50;;;8.45;94.43
59825;BME280;45703;50.898;6.054;2022-11-20T14:14:50;99294.47;;;8.46;94.09
59825;BME280;45703;50.898;6.054;2022-11-20T14:19:54;99293.53;;;8.40;93.55
59825;BME280;45703;50.898;6.054;2022-11-20T14:22:27;99291.09;;;8.39;93.13
59825;BME280;45703;50.898;6.054;2022-11-20T14:27:38;99280.66;;;8.26;92.74
59825;BME280;45703;50.898;6.054;2022-11-20T14:30:04;99270.56;;;8.16;92.65
59825;BME280;45703;50.898;6.054;2022-11-20T14:32:31;99275.53;;;8.13;92.64
59825;BME280;45703;50.898;6.054;2022-11-20T14:35:02;99275.41;;;8.08;92.27
59825;BME280;45703;50.898;6.054;2022-11-20T14:37:35;99268.44;;;7.95;92.70